Time;durP1;ratioP1;P1;durP2;ratioP2;P2;SDS_P1;SDS_P2;PMS_P1;PMS_P2;Temp;Humidity;BMP_temperature;BMP_pressure;BME280_temperature;BME280_humidity;BME280_pressure;Samples;Min_cycle;Max_cycle;Signal;HPM_P1;HPM_P2
2024/03/22 00:01:52;;;;;;;6.57;5.70;;;12.40;62.20;;;;;;4940405;28;20042;-63
2024/03/22 00:04:37;;;;;;;5.15;4.65;;;12.40;62.20;;;;;;4937439;28;20062;-62
2024/03/22 00:07:22;;;;;;;5.75;4.85;;;12.50;62.40;;;;;;4942061;29;20039;-63
2024/03/22 00:10:07;;;;;;;7.22;5.55;;;12.40;62.20;;;;;;4942638;28;20061;-66
2024/03/22 00:12:51;;;;;;;5.53;4.97;;;12.50;62.30;;;;;;4939336;29;20042;-62
2024/03/22 00:15:36;;;;;;;7.75;5.63;;;12.50;62.30;;;;;;4944297;28;20277;-63
2024/03/22 00:18:21;;;;;;;7.43;5.05;;;12.50;62.30;;;;;;4937130;29;20034;-62
2024/03/22 00:21:06;;;;;;;7.47;5.13;;;12.50;62.30;;;;;;4940762;28;20590;-63
2024/03/22 00:23:51;;;;;;;8.15;5.38;;;12.50;62.30;;;;;;4934787;28;20058;-63
2024/03/22 00:26:37;;;;;;;8.32;5.75;;;12.40;62.10;;;;;;4944015;28;20406;-63
2024/03/22 00:29:22;;;;;;;5.25;4.57;;;12.50;62.30;;;;;;4937137;29;20050;-62
2024/03/22 00:32:07;;;;;;;9.13;6.18;;;12.50;62.30;;;;;;4935121;28;20046;-63
2024/03/22 00:34:52;;;;;;;5.57;4.63;;;12.50;62.30;;;;;;4951651;28;20049;-63
2024/03/22 00:37:36;;;;;;;6.18;5.15;;;12.50;62.30;;;;;;4937897;29;20608;-63
2024/03/22 00:40:21;;;;;;;5.25;4.75;;;12.50;62.30;;;;;;4940055;29;20659;-63
2024/03/22 00:43:06;;;;;;;4.60;4.07;;;12.50;62.30;;;;;;4937137;28;20098;-62
2024/03/22 00:45:51;;;;;;;5.88;4.47;;;12.40;62.60;;;;;;4938778;29;20043;-62
2024/03/22 00:48:36;;;;;;;5.85;4.63;;;12.50;62.30;;;;;;4939446;28;20114;-62
2024/03/22 00:51:22;;;;;;;5.47;4.40;;;12.50;62.30;;;;;;4938469;28;20325;-64
2024/03/22 00:54:06;;;;;;;5.53;3.85;;;12.50;62.30;;;;;;4931644;28;20576;-62
2024/03/22 00:56:51;;;;;;;5.72;3.92;;;12.50;62.30;;;;;;4933789;28;20051;-62
2024/03/22 00:59:36;;;;;;;4.80;4.25;;;12.50;62.40;;;;;;4935046;28;20168;-62
2024/03/22 01:02:22;;;;;;;5.60;4.22;;;12.50;62.40;;;;;;4936041;29;20053;-62
2024/03/22 01:05:07;;;;;;;4.40;4.00;;;12.50;62.40;;;;;;4937322;28;20543;-62
2024/03/22 01:07:51;;;;;;;7.15;4.85;;;12.50;62.40;;;;;;4938461;29;20038;-62
2024/03/22 01:10:36;;;;;;;4.68;4.22;;;12.50;62.30;;;;;;4935882;28;20133;-62
2024/03/22 01:13:21;;;;;;;4.55;4.15;;;12.50;62.30;;;;;;4929943;29;20077;-61
2024/03/22 01:16:08;;;;;;;6.07;4.10;;;12.50;62.30;;;;;;4933724;29;20046;-63
2024/03/22 01:18:53;;;;;;;4.40;4.00;;;12.50;62.30;;;;;;4934977;29;20050;-62
2024/03/22 01:21:37;;;;;;;4.70;4.30;;;12.50;62.30;;;;;;4936863;28;20728;-62
2024/03/22 01:24:22;;;;;;;5.65;4.70;;;12.50;62.30;;;;;;4935664;29;20073;-62
2024/03/22 01:27:06;;;;;;;4.78;4.28;;;12.50;62.40;;;;;;4928111;29;20473;-62
2024/03/22 01:29:51;;;;;;;4.90;3.83;;;12.50;62.40;;;;;;4920016;29;20074;-62
2024/03/22 01:32:36;;;;;;;5.75;4.03;;;12.40;62.20;;;;;;4920031;29;20597;-62
2024/03/22 01:35:22;;;;;;;3.65;3.35;;;12.50;62.40;;;;;;4920378;29;20577;-62
2024/03/22 01:38:06;;;;;;;4.85;3.83;;;12.50;62.50;;;;;;4915702;29;20450;-62
2024/03/22 01:40:51;;;;;;;5.25;3.60;;;12.50;62.50;;;;;;4921869;29;20079;-62
2024/03/22 01:43:35;;;;;;;4.15;3.47;;;12.50;62.50;;;;;;4897249;29;20043;-63
2024/03/22 01:46:20;;;;;;;4.85;4.18;;;12.50;62.60;;;;;;4911194;29;20419;-63
2024/03/22 01:49:05;;;;;;;6.07;3.78;;;12.50;62.60;;;;;;4914842;29;20058;-64
2024/03/22 01:51:50;;;;;;;5.28;4.00;;;12.50;62.60;;;;;;4919176;29;20054;-63
2024/03/22 01:54:35;;;;;;;5.55;4.22;;;12.50;62.70;;;;;;4915306;29;20110;-65
2024/03/22 01:57:20;;;;;;;4.82;4.15;;;12.40;62.50;;;;;;4918537;29;20119;-60
2024/03/22 02:00:06;;;;;;;6.30;3.97;;;12.40;62.60;;;;;;4886543;29;20055;-64
2024/03/22 02:02:58;;;;;;;6.90;4.55;;;12.40;62.70;;;;;;4918055;29;20141;-65
2024/03/22 02:05:43;;;;;;;4.80;4.30;;;12.40;62.70;;;;;;4922134;29;20521;-65
2024/03/22 02:08:27;;;;;;;5.93;5.10;;;12.40;62.80;;;;;;4922789;29;20086;-66
2024/03/22 02:11:12;;;;;;;4.90;4.40;;;12.40;62.80;;;;;;4918365;29;20051;-66
2024/03/22 02:13:57;;;;;;;4.47;4.07;;;12.40;62.80;;;;;;4919606;29;20050;-64
2024/03/22 02:16:42;;;;;;;5.13;4.57;;;12.40;63.00;;;;;;4919523;29;20069;-61
2024/03/22 02:19:29;;;;;;;9.27;4.97;;;12.40;63.00;;;;;;4906934;29;20527;-65
2024/03/22 02:22:14;;;;;;;5.72;4.75;;;12.40;63.10;;;;;;4912141;29;20027;-64
2024/03/22 02:24:59;;;;;;;5.93;4.75;;;12.40;63.10;;;;;;4917404;29;20075;-64
2024/03/22 02:27:44;;;;;;;6.18;4.53;;;12.40;63.20;;;;;;4922324;29;20071;-64
2024/03/22 02:30:29;;;;;;;5.65;4.80;;;12.40;63.30;;;;;;4914701;29;20050;-64
2024/03/22 02:33:13;;;;;;;6.00;5.15;;;12.40;63.30;;;;;;4891532;29;20075;-64
2024/03/22 02:35:58;;;;;;;4.63;4.20;;;12.40;63.40;;;;;;4907499;29;20401;-64
2024/03/22 02:38:42;;;;;;;6.97;5.20;;;12.40;63.40;;;;;;4915412;29;20474;-64
2024/03/22 02:41:27;;;;;;;5.78;4.35;;;12.40;63.50;;;;;;4921472;29;20038;-67
2024/03/22 02:44:11;;;;;;;5.60;4.32;;;12.40;63.50;;;;;;4919743;29;20496;-66
2024/03/22 02:46:56;;;;;;;5.22;4.70;;;12.40;63.60;;;;;;4916233;29;20510;-65
2024/03/22 02:49:41;;;;;;;5.15;4.25;;;12.40;63.60;;;;;;4926803;29;20159;-65
2024/03/22 02:52:25;;;;;;;5.10;4.68;;;12.40;63.70;;;;;;4901985;29;20552;-64
2024/03/22 02:55:11;;;;;;;7.22;4.82;;;12.40;63.80;;;;;;4900027;29;20091;-64
2024/03/22 02:57:58;;;;;;;6.43;4.55;;;12.40;63.80;;;;;;4921718;29;20081;-64
2024/03/22 03:00:43;;;;;;;6.40;4.68;;;12.40;63.90;;;;;;4906394;29;20129;-64
2024/03/22 03:03:28;;;;;;;5.65;5.15;;;12.40;63.90;;;;;;4921670;29;20083;-63
2024/03/22 03:06:13;;;;;;;9.90;4.57;;;12.40;64.00;;;;;;4926126;29;20186;-64
2024/03/22 03:08:57;;;;;;;7.40;5.10;;;12.40;64.00;;;;;;4917785;29;20058;-65
2024/03/22 03:11:42;;;;;;;6.70;4.22;;;12.40;64.00;;;;;;4919657;29;20050;-65
2024/03/22 03:14:27;;;;;;;5.35;4.60;;;12.40;64.10;;;;;;4921441;29;20146;-63
2024/03/22 03:17:11;;;;;;;8.43;4.57;;;12.40;64.10;;;;;;4924002;28;20365;-63
2024/03/22 03:19:56;;;;;;;6.75;4.85;;;12.40;64.20;;;;;;4913810;29;20034;-64
2024/03/22 03:22:41;;;;;;;6.07;4.88;;;12.40;64.60;;;;;;4918597;28;20064;-64
2024/03/22 03:25:26;;;;;;;5.55;4.82;;;12.40;64.30;;;;;;4917130;29;20167;-65
2024/03/22 03:28:12;;;;;;;5.22;4.68;;;12.40;64.30;;;;;;4938812;28;20054;-66
2024/03/22 03:30:57;;;;;;;7.88;4.95;;;12.40;64.40;;;;;;4940454;29;20439;-64
2024/03/22 03:33:42;;;;;;;4.82;4.28;;;12.40;64.40;;;;;;4939805;28;20110;-65
2024/03/22 03:36:26;;;;;;;6.80;4.35;;;12.40;64.50;;;;;;4942908;29;20097;-65
2024/03/22 03:39:11;;;;;;;5.78;4.18;;;12.40;64.90;;;;;;4918890;29;20062;-65
2024/03/22 03:41:55;;;;;;;5.85;4.13;;;12.40;64.60;;;;;;4938907;29;20137;-65
2024/03/22 03:44:41;;;;;;;5.05;4.38;;;12.40;64.60;;;;;;4934108;29;20042;-66
2024/03/22 03:47:26;;;;;;;6.45;4.18;;;12.40;64.70;;;;;;4924160;29;20544;-65
2024/03/22 03:50:10;;;;;;;4.95;4.05;;;12.40;64.80;;;;;;4942647;29;20532;-65
2024/03/22 03:52:55;;;;;;;5.50;5.07;;;12.40;64.80;;;;;;4934292;28;20478;-66
2024/03/22 03:55:39;;;;;;;4.53;3.75;;;12.50;65.00;;;;;;4940717;29;20244;-66
2024/03/22 03:58:24;;;;;;;4.35;3.95;;;12.40;64.90;;;;;;4944302;28;20094;-66
2024/03/22 04:01:09;;;;;;;5.88;4.63;;;12.40;65.50;;;;;;4939236;28;20520;-67
2024/03/22 04:03:53;;;;;;;3.85;3.40;;;12.40;65.00;;;;;;4943503;28;20042;-66
2024/03/22 04:06:38;;;;;;;6.50;4.10;;;12.40;65.10;;;;;;4942747;29;20047;-66
2024/03/22 04:09:23;;;;;;;4.13;3.38;;;12.40;65.40;;;;;;4932275;28;20094;-68
2024/03/22 04:12:07;;;;;;;4.95;3.75;;;12.40;65.10;;;;;;4942155;29;20102;-67
2024/03/22 04:14:52;;;;;;;4.30;3.38;;;12.40;65.20;;;;;;4932152;28;20653;-66
2024/03/22 04:17:37;;;;;;;3.83;3.10;;;12.40;65.20;;;;;;4920985;29;20511;-65
2024/03/22 04:20:21;;;;;;;5.22;3.20;;;12.40;65.30;;;;;;4937048;28;20085;-64
2024/03/22 04:23:05;;;;;;;5.60;3.53;;;12.40;65.30;;;;;;4937563;29;20082;-64
2024/03/22 04:25:59;;;;;;;4.10;3.30;;;12.40;65.30;;;;;;4927558;28;20070;-63
2024/03/22 04:28:44;;;;;;;4.47;3.55;;;12.40;65.40;;;;;;4939654;29;20066;-63
2024/03/22 04:31:28;;;;;;;4.53;3.67;;;12.50;65.60;;;;;;4934221;28;20057;-64
2024/03/22 04:34:12;;;;;;;5.07;3.35;;;12.40;65.40;;;;;;4950354;28;20054;-64
2024/03/22 04:36:57;;;;;;;4.05;3.30;;;12.50;65.70;;;;;;4926072;29;20135;-64
2024/03/22 04:39:42;;;;;;;4.95;3.63;;;12.40;65.50;;;;;;4931399;28;20054;-63
2024/03/22 04:42:26;;;;;;;5.65;3.88;;;12.40;65.60;;;;;;4919318;29;20535;-64
2024/03/22 04:45:11;;;;;;;3.63;3.33;;;12.40;65.60;;;;;;4930393;29;20090;-65
2024/03/22 04:47:55;;;;;;;4.53;3.67;;;12.50;65.80;;;;;;4939556;29;20053;-64
2024/03/22 04:50:41;;;;;;;4.10;3.70;;;12.40;65.70;;;;;;4937939;28;20724;-63
2024/03/22 04:53:25;;;;;;;4.38;3.83;;;12.40;65.80;;;;;;4932315;29;20038;-63
2024/03/22 04:56:10;;;;;;;4.82;3.90;;;12.40;65.80;;;;;;4933981;28;20042;-63
2024/03/22 04:58:55;;;;;;;4.88;3.88;;;12.50;66.00;;;;;;4933830;28;20037;-64
2024/03/22 05:01:39;;;;;;;4.10;3.67;;;12.40;65.80;;;;;;4930679;28;20486;-63
2024/03/22 05:04:24;;;;;;;3.72;2.95;;;12.40;65.90;;;;;;4938529;29;20034;-65
2024/03/22 05:07:09;;;;;;;3.30;3.00;;;12.40;65.90;;;;;;4937647;28;20038;-63
2024/03/22 05:09:54;;;;;;;3.65;3.33;;;12.40;65.90;;;;;;4930833;29;20094;-62
2024/03/22 05:12:39;;;;;;;4.03;2.65;;;12.40;66.00;;;;;;4921793;28;20062;-64
2024/03/22 05:15:27;;;;;;;2.97;2.67;;;12.50;66.20;;;;;;4926829;29;20038;-64
2024/03/22 05:18:13;;;;;;;4.68;3.22;;;12.40;66.10;;;;;;4918178;29;20102;-62
2024/03/22 05:20:57;;;;;;;2.30;2.10;;;12.40;66.20;;;;;;4939535;28;20561;-62
2024/03/22 05:23:43;;;;;;;2.80;2.42;;;12.40;66.20;;;;;;4936066;28;20050;-62
2024/03/22 05:26:27;;;;;;;2.50;2.30;;;12.40;66.20;;;;;;4924317;29;20074;-63
2024/03/22 05:29:12;;;;;;;2.20;2.00;;;12.40;66.30;;;;;;4936202;29;20038;-64
2024/03/22 05:31:57;;;;;;;2.85;2.20;;;12.50;66.50;;;;;;4929720;29;20158;-62
2024/03/22 05:34:41;;;;;;;3.00;2.70;;;12.50;66.60;;;;;;4943175;28;20441;-63
2024/03/22 05:37:26;;;;;;;2.38;2.17;;;12.40;66.50;;;;;;4921700;29;20114;-64
2024/03/22 05:40:12;;;;;;;2.45;1.98;;;12.50;66.70;;;;;;4935954;28;20063;-65
2024/03/22 05:42:57;;;;;;;1.73;1.40;;;12.50;66.80;;;;;;4919409;29;20038;-65
2024/03/22 05:45:41;;;;;;;1.73;1.63;;;12.50;66.80;;;;;;4934440;28;20070;-65
2024/03/22 05:48:26;;;;;;;1.88;1.77;;;12.50;66.90;;;;;;4936555;29;20138;-64
2024/03/22 05:51:10;;;;;;;1.70;1.50;;;12.50;67.00;;;;;;4935016;28;20043;-65
2024/03/22 05:53:57;;;;;;;1.70;1.40;;;12.50;67.10;;;;;;4932269;29;20042;-64
2024/03/22 05:56:41;;;;;;;2.75;1.95;;;12.60;67.30;;;;;;4933729;29;20552;-64
2024/03/22 05:59:27;;;;;;;3.05;1.67;;;12.50;67.20;;;;;;4933944;28;20050;-63
2024/03/22 06:02:11;;;;;;;1.92;1.80;;;12.50;67.30;;;;;;4940627;28;21122;-63
2024/03/22 06:04:56;;;;;;;2.38;1.30;;;12.50;67.30;;;;;;4915161;28;20046;-64
2024/03/22 06:07:43;;;;;;;2.10;1.23;;;12.60;67.50;;;;;;4938096;29;20453;-64
2024/03/22 06:10:27;;;;;;;2.70;1.33;;;12.60;67.60;;;;;;4928740;28;20050;-63
2024/03/22 06:13:12;;;;;;;1.30;0.93;;;12.60;67.60;;;;;;4936046;29;20054;-65
2024/03/22 06:15:57;;;;;;;1.55;1.05;;;12.60;67.70;;;;;;4928818;29;20101;-64
2024/03/22 06:18:41;;;;;;;1.63;1.17;;;12.60;67.70;;;;;;4931632;29;20047;-64
2024/03/22 06:21:26;;;;;;;1.35;1.05;;;12.60;67.80;;;;;;4924723;29;20361;-64
2024/03/22 06:24:11;;;;;;;1.10;1.00;;;12.60;67.80;;;;;;4930037;28;20054;-65
2024/03/22 06:26:56;;;;;;;1.80;1.23;;;12.60;67.90;;;;;;4937679;29;20102;-64
2024/03/22 06:29:41;;;;;;;1.83;1.20;;;12.60;68.40;;;;;;4938826;28;20118;-63
2024/03/22 06:32:25;;;;;;;1.90;0.98;;;12.60;68.00;;;;;;4938309;29;20416;-64
2024/03/22 06:35:11;;;;;;;1.75;1.50;;;12.60;68.00;;;;;;4931058;28;20054;-62
2024/03/22 06:37:56;;;;;;;1.92;1.08;;;12.60;68.00;;;;;;4929080;28;20042;-64
2024/03/22 06:40:41;;;;;;;2.45;1.33;;;12.70;68.20;;;;;;4910100;28;20042;-62
2024/03/22 06:43:26;;;;;;;1.88;1.65;;;12.70;68.20;;;;;;4927580;28;20042;-63
2024/03/22 06:46:10;;;;;;;2.45;1.77;;;12.70;68.20;;;;;;4935179;28;20090;-62
2024/03/22 06:48:55;;;;;;;1.35;0.93;;;12.70;68.20;;;;;;4932540;29;20045;-63
2024/03/22 06:51:39;;;;;;;1.58;1.20;;;12.70;68.20;;;;;;4928786;28;20141;-64
2024/03/22 06:54:25;;;;;;;1.23;1.13;;;12.70;68.20;;;;;;4936511;29;20532;-65
2024/03/22 06:57:11;;;;;;;1.55;1.15;;;12.70;68.20;;;;;;4932270;29;20399;-64
2024/03/22 06:59:55;;;;;;;1.38;1.23;;;12.80;68.70;;;;;;4908647;28;20043;-64
2024/03/22 07:02:40;;;;;;;2.05;1.25;;;12.90;69.30;;;;;;4935224;28;20055;-64
2024/03/22 07:05:25;;;;;;;2.55;1.17;;;12.90;69.70;;;;;;4930035;29;20094;-65
2024/03/22 07:08:10;;;;;;;2.25;1.00;;;13.00;70.10;;;;;;4937985;29;20379;-64
2024/03/22 07:10:54;;;;;;;1.42;0.75;;;13.10;70.50;;;;;;4939072;28;20117;-65
2024/03/22 07:13:39;;;;;;;2.60;1.45;;;13.20;70.80;;;;;;4937079;29;20098;-65
2024/03/22 07:16:24;;;;;;;1.63;1.52;;;13.30;71.20;;;;;;4938599;28;20073;-64
2024/03/22 07:19:09;;;;;;;3.28;1.13;;;13.30;71.40;;;;;;4946358;28;20231;-64
2024/03/22 07:21:54;;;;;;;0.80;0.70;;;13.40;71.70;;;;;;4924001;29;20445;-67
2024/03/22 07:24:38;;;;;;;0.95;0.80;;;13.40;71.70;;;;;;4943084;28;20150;-65
2024/03/22 07:27:23;;;;;;;0.68;0.68;;;13.50;71.80;;;;;;4938867;28;20081;-65
2024/03/22 07:30:08;;;;;;;1.98;1.00;;;13.50;71.80;;;;;;4938731;28;20425;-64
2024/03/22 07:32:53;;;;;;;2.05;0.88;;;13.50;71.70;;;;;;4934802;29;20575;-64
2024/03/22 07:35:37;;;;;;;1.10;0.60;;;13.60;71.90;;;;;;4937858;28;20090;-64
2024/03/22 07:38:22;;;;;;;0.47;0.45;;;13.60;71.90;;;;;;4941657;28;20046;-61
2024/03/22 07:41:07;;;;;;;2.47;0.50;;;13.60;71.80;;;;;;4937373;28;20101;-64
2024/03/22 07:43:52;;;;;;;0.65;0.50;;;13.60;71.80;;;;;;4932113;29;20574;-64
2024/03/22 07:46:37;;;;;;;1.70;0.75;;;13.60;71.80;;;;;;4923485;29;20037;-64
2024/03/22 07:49:21;;;;;;;0.70;0.40;;;13.60;71.70;;;;;;4937156;28;20061;-64
2024/03/22 07:52:06;;;;;;;1.17;0.50;;;13.60;71.70;;;;;;4937581;29;20463;-64
2024/03/22 07:54:50;;;;;;;0.55;0.50;;;13.70;71.80;;;;;;4939396;28;20074;-64
2024/03/22 07:57:36;;;;;;;0.85;0.60;;;13.60;71.50;;;;;;4939290;28;20078;-65
2024/03/22 08:00:21;;;;;;;0.70;0.50;;;13.60;71.40;;;;;;4938359;28;20046;-64
2024/03/22 08:03:06;;;;;;;1.80;0.70;;;13.60;71.40;;;;;;4935291;29;20524;-64
2024/03/22 08:05:51;;;;;;;1.10;0.80;;;13.70;71.60;;;;;;4937883;28;20082;-64
2024/03/22 08:08:36;;;;;;;2.08;0.55;;;13.70;71.50;;;;;;4943288;29;20054;-64
2024/03/22 08:11:20;;;;;;;2.92;0.85;;;13.70;71.50;;;;;;4920924;29;20046;-63
2024/03/22 08:14:05;;;;;;;5.57;1.35;;;13.70;71.50;;;;;;4932232;29;20066;-64
2024/03/22 08:16:50;;;;;;;3.58;0.80;;;13.70;71.50;;;;;;4924621;29;20461;-65
2024/03/22 08:19:35;;;;;;;2.45;0.60;;;13.70;71.40;;;;;;4930118;28;20413;-65
2024/03/22 08:22:19;;;;;;;2.22;0.55;;;13.70;71.40;;;;;;4944899;28;20897;-66
2024/03/22 08:25:07;;;;;;;2.22;0.60;;;13.80;71.50;;;;;;4933120;29;20520;-66
2024/03/22 08:27:55;;;;;;;1.67;0.50;;;13.70;71.20;;;;;;4935460;28;20109;-65
2024/03/22 08:30:40;;;;;;;2.47;0.95;;;13.80;71.40;;;;;;4933173;28;20125;-65
2024/03/22 08:33:25;;;;;;;2.22;0.90;;;13.80;71.30;;;;;;4930194;29;20043;-65
2024/03/22 08:36:10;;;;;;;3.22;1.02;;;13.90;71.40;;;;;;4941427;29;20368;-65
2024/03/22 08:38:54;;;;;;;3.28;1.00;;;13.90;71.30;;;;;;4936147;28;20050;-65
2024/03/22 08:41:39;;;;;;;3.00;0.70;;;13.90;71.20;;;;;;4942648;28;20038;-65
2024/03/22 08:44:24;;;;;;;2.38;0.70;;;14.00;71.40;;;;;;4943053;28;20094;-65
2024/03/22 08:47:10;;;;;;;3.00;0.75;;;14.00;71.20;;;;;;4938522;28;20469;-65
2024/03/22 08:49:56;;;;;;;3.35;0.80;;;14.00;71.10;;;;;;4915667;29;20093;-65
2024/03/22 08:52:41;;;;;;;2.28;1.13;;;14.10;71.20;;;;;;4932595;28;20410;-64
2024/03/22 08:55:26;;;;;;;3.72;1.15;;;14.10;71.10;;;;;;4924840;29;20189;-63
2024/03/22 08:58:11;;;;;;;3.08;1.23;;;14.10;71.10;;;;;;4927583;28;20122;-64
2024/03/22 09:00:55;;;;;;;4.68;1.27;;;14.20;71.10;;;;;;4944048;28;20041;-63
2024/03/22 09:03:40;;;;;;;5.03;1.80;;;14.20;70.90;;;;;;4938799;28;20295;-64
2024/03/22 09:06:25;;;;;;;2.20;1.20;;;14.30;71.00;;;;;;4947045;28;20101;-65
2024/03/22 09:09:09;;;;;;;6.05;1.42;;;14.30;70.80;;;;;;4935850;29;20034;-62
2024/03/22 09:11:54;;;;;;;4.95;1.70;;;14.40;70.80;;;;;;4933246;28;20069;-63
2024/03/22 09:14:38;;;;;;;6.72;1.80;;;14.50;70.80;;;;;;4940473;28;20077;-68
2024/03/22 09:17:24;;;;;;;7.18;1.77;;;14.50;70.50;;;;;;4940523;29;20038;-62
2024/03/22 09:20:09;;;;;;;3.35;1.33;;;14.60;70.50;;;;;;4937858;28;20115;-61
2024/03/22 09:22:54;;;;;;;6.57;1.55;;;14.70;70.40;;;;;;4939550;28;20038;-62
2024/03/22 09:25:39;;;;;;;7.93;1.98;;;14.80;70.40;;;;;;4930680;28;20105;-63
2024/03/22 09:28:23;;;;;;;8.15;2.55;;;14.90;70.30;;;;;;4942044;28;20058;-62
2024/03/22 09:31:08;;;;;;;7.70;1.98;;;15.00;70.30;;;;;;4936443;28;20560;-65
2024/03/22 09:33:53;;;;;;;9.90;2.35;;;15.10;70.20;;;;;;4937515;28;20078;-61
2024/03/22 09:36:38;;;;;;;9.02;2.78;;;15.10;69.90;;;;;;4938857;28;20070;-62
2024/03/22 09:39:23;;;;;;;7.90;2.83;;;15.20;69.90;;;;;;4929924;29;20576;-62
2024/03/22 09:42:09;;;;;;;9.52;3.33;;;15.30;69.80;;;;;;4942046;28;20393;-64
2024/03/22 09:44:55;;;;;;;6.57;2.10;;;15.40;69.70;;;;;;4933534;28;20097;-61
2024/03/22 09:47:40;;;;;;;7.60;2.47;;;15.50;69.70;;;;;;4938681;28;20053;-64
2024/03/22 09:50:25;;;;;;;10.27;3.40;;;15.50;69.40;;;;;;4928426;28;20083;-66
2024/03/22 09:53:12;;;;;;;12.63;3.10;;;15.60;69.40;;;;;;4937460;28;20600;-62
2024/03/22 09:55:59;;;;;;;8.10;2.28;;;15.70;69.30;;;;;;4938362;28;20336;-62
2024/03/22 09:58:44;;;;;;;7.55;2.72;;;15.80;69.30;;;;;;4932395;28;20086;-65
2024/03/22 10:01:30;;;;;;;7.47;3.25;;;15.80;69.10;;;;;;4935975;28;20070;-62
2024/03/22 10:04:15;;;;;;;11.63;3.22;;;15.90;69.10;;;;;;4937236;28;20097;-62
2024/03/22 10:06:59;;;;;;;12.10;3.63;;;15.90;68.80;;;;;;4928976;28;20050;-62
2024/03/22 10:09:45;;;;;;;11.70;3.97;;;16.00;68.80;;;;;;4930565;28;20541;-62
2024/03/22 10:12:30;;;;;;;12.57;3.50;;;16.00;68.60;;;;;;4918630;28;20458;-64
2024/03/22 10:15:16;;;;;;;12.90;3.45;;;16.10;68.60;;;;;;4928790;28;20116;-62
2024/03/22 10:18:01;;;;;;;11.20;3.20;;;16.10;68.40;;;;;;4920237;28;20062;-62
2024/03/22 10:20:46;;;;;;;8.00;2.78;;;16.20;68.40;;;;;;4920676;28;20310;-62
2024/03/22 10:23:31;;;;;;;10.27;3.45;;;16.30;68.30;;;;;;4908969;28;20069;-62
2024/03/22 10:26:17;;;;;;;8.93;3.17;;;16.40;68.20;;;;;;4917777;28;20047;-62
2024/03/22 10:29:06;;;;;;;11.43;3.50;;;16.50;68.20;;;;;;4934187;28;20347;-62
2024/03/22 10:31:54;;;;;;;9.13;2.58;;;16.60;68.00;;;;;;4934863;29;20560;-61
2024/03/22 10:34:42;;;;;;;9.45;4.32;;;16.60;67.80;;;;;;4933190;28;20052;-61
2024/03/22 10:37:27;;;;;;;11.18;3.08;;;16.70;67.70;;;;;;4934859;29;20101;-59
2024/03/22 10:40:14;;;;;;;9.27;3.10;;;16.80;67.70;;;;;;4923303;28;20332;-60
2024/03/22 10:43:00;;;;;;;10.85;3.35;;;16.90;67.60;;;;;;4923104;29;20054;-60
2024/03/22 10:45:50;;;;;;;11.77;3.97;;;16.90;67.30;;;;;;4934213;28;20520;-61
2024/03/22 10:48:37;;;;;;;15.02;5.25;;;17.10;67.30;;;;;;4939411;28;20049;-60
2024/03/22 10:51:23;;;;;;;9.15;3.42;;;17.20;67.20;;;;;;4926030;29;20464;-61
2024/03/22 10:54:09;;;;;;;13.40;3.40;;;17.30;67.10;;;;;;4936671;29;20050;-61
2024/03/22 10:56:54;;;;;;;10.70;4.53;;;17.40;66.90;;;;;;4926938;29;20126;-61
2024/03/22 10:59:41;;;;;;;9.93;3.90;;;17.50;66.70;;;;;;4914207;28;20143;-60
2024/03/22 11:02:28;;;;;;;11.90;3.63;;;17.70;66.80;;;;;;4928809;29;20062;-60
2024/03/22 11:05:18;;;;;;;9.32;2.97;;;17.70;66.40;;;;;;4928540;29;20072;-61
2024/03/22 11:08:04;;;;;;;11.45;3.15;;;17.90;66.40;;;;;;4930773;28;20070;-61
2024/03/22 11:10:49;;;;;;;10.75;3.33;;;18.00;66.30;;;;;;4918022;29;20589;-61
2024/03/22 11:13:36;;;;;;;9.52;3.70;;;18.00;66.00;;;;;;4917777;29;20368;-61
2024/03/22 11:16:21;;;;;;;12.93;3.25;;;18.10;66.00;;;;;;4939303;28;20074;-61
2024/03/22 11:19:06;;;;;;;7.93;2.85;;;18.10;65.70;;;;;;4933450;29;20118;-60
2024/03/22 11:21:50;;;;;;;10.80;3.20;;;18.20;65.60;;;;;;4932087;29;20039;-62
2024/03/22 11:24:37;;;;;;;15.90;3.80;;;18.20;65.30;;;;;;4930782;29;20042;-62
2024/03/22 11:27:22;;;;;;;14.68;4.43;;;18.20;65.10;;;;;;4913828;29;20508;-62
2024/03/22 11:30:07;;;;;;;12.35;3.20;;;18.30;65.10;;;;;;4928996;29;20034;-62
2024/03/22 11:32:53;;;;;;;12.15;3.72;;;18.30;65.00;;;;;;4940017;28;20054;-61
2024/03/22 11:35:38;;;;;;;9.48;3.15;;;18.40;65.00;;;;;;4919418;28;20190;-63
2024/03/22 11:38:26;;;;;;;10.38;3.30;;;18.40;64.80;;;;;;4931893;28;20049;-61
2024/03/22 11:41:16;;;;;;;7.43;2.72;;;18.50;64.70;;;;;;4929652;29;20063;-60
2024/03/22 11:44:02;;;;;;;11.52;3.70;;;18.50;64.50;;;;;;4922710;29;20461;-66
2024/03/22 11:46:46;;;;;;;10.43;3.15;;;18.50;64.30;;;;;;4932477;29;20055;-60
2024/03/22 11:49:31;;;;;;;13.48;3.65;;;18.50;64.00;;;;;;4933765;28;20039;-61
2024/03/22 11:52:16;;;;;;;11.00;3.75;;;18.50;63.80;;;;;;4930168;28;20034;-60
2024/03/22 11:55:01;;;;;;;9.52;2.95;;;18.50;63.80;;;;;;4928033;28;20114;-60
2024/03/22 11:57:49;;;;;;;11.88;4.25;;;18.50;63.70;;;;;;4937294;29;20402;-60
2024/03/22 12:00:33;;;;;;;10.60;3.35;;;18.40;63.40;;;;;;4936475;28;20198;-60
2024/03/22 12:03:19;;;;;;;8.75;2.72;;;18.40;63.30;;;;;;4920826;28;20058;-61
2024/03/22 12:06:04;;;;;;;13.23;4.15;;;18.40;63.00;;;;;;4938136;29;20043;-60
2024/03/22 12:08:50;;;;;;;10.93;3.25;;;18.40;62.90;;;;;;4925667;28;20066;-60
2024/03/22 12:11:35;;;;;;;8.57;2.83;;;18.50;62.90;;;;;;4934616;29;20046;-59
2024/03/22 12:14:20;;;;;;;10.80;3.53;;;18.50;62.60;;;;;;4930168;29;20066;-60
2024/03/22 12:17:06;;;;;;;7.68;2.83;;;18.50;62.50;;;;;;4927290;28;20571;-60
2024/03/22 12:19:51;;;;;;;10.27;4.88;;;18.50;62.40;;;;;;4924386;29;20034;-60
2024/03/22 12:22:36;;;;;;;13.88;3.38;;;18.60;62.40;;;;;;4915483;28;20155;-61
2024/03/22 12:25:24;;;;;;;10.00;2.80;;;18.70;62.30;;;;;;4937359;28;20054;-63
2024/03/22 12:28:08;;;;;;;10.55;3.03;;;18.80;62.20;;;;;;4934985;29;20118;-60
2024/03/22 12:30:53;;;;;;;9.68;2.67;;;18.80;61.90;;;;;;4936354;28;20474;-61
2024/03/22 12:33:40;;;;;;;11.73;4.22;;;18.90;61.70;;;;;;4947244;28;20491;-60
2024/03/22 12:36:25;;;;;;;10.07;3.22;;;19.00;61.70;;;;;;4934475;28;20045;-60
2024/03/22 12:39:09;;;;;;;10.43;2.83;;;19.10;61.70;;;;;;4937886;28;20384;-61
2024/03/22 12:41:54;;;;;;;8.68;2.67;;;19.20;61.60;;;;;;4932739;28;20046;-63
2024/03/22 12:44:38;;;;;;;11.32;2.85;;;19.40;61.70;;;;;;4936787;29;20264;-62
2024/03/22 12:47:23;;;;;;;9.45;3.63;;;19.40;61.40;;;;;;4936987;29;20074;-61
2024/03/22 12:50:08;;;;;;;8.68;2.55;;;19.60;61.50;;;;;;4933317;28;20039;-61
2024/03/22 12:52:53;;;;;;;7.30;2.15;;;19.60;61.20;;;;;;4928501;29;20422;-61
2024/03/22 12:55:38;;;;;;;10.30;3.40;;;19.60;60.80;;;;;;4938746;29;20054;-63
2024/03/22 12:58:23;;;;;;;10.88;3.13;;;19.70;60.80;;;;;;4932500;28;20193;-61
2024/03/22 13:01:10;;;;;;;6.47;2.30;;;19.60;60.40;;;;;;4930594;28;20291;-61
2024/03/22 13:03:55;;;;;;;10.93;2.88;;;19.60;60.20;;;;;;4920564;28;20093;-63
2024/03/22 13:06:40;;;;;;;6.10;2.10;;;19.60;60.60;;;;;;4936042;28;20298;-61
2024/03/22 13:09:25;;;;;;;8.10;1.88;;;19.60;60.20;;;;;;4935911;28;20046;-61
2024/03/22 13:12:09;;;;;;;7.93;3.15;;;19.60;60.20;;;;;;4925891;29;21073;-61
2024/03/22 13:14:54;;;;;;;5.30;1.73;;;19.50;60.00;;;;;;4921062;29;20172;-61
2024/03/22 13:17:39;;;;;;;10.15;2.92;;;19.60;60.20;;;;;;4926862;28;20041;-61
2024/03/22 13:20:24;;;;;;;6.97;2.45;;;19.60;60.10;;;;;;4929926;28;20087;-61
2024/03/22 13:23:09;;;;;;;6.65;2.70;;;19.60;60.00;;;;;;4928385;29;20066;-62
2024/03/22 13:25:53;;;;;;;8.35;2.53;;;19.60;59.90;;;;;;4935741;29;20089;-61
2024/03/22 13:28:38;;;;;;;8.85;2.35;;;19.60;59.80;;;;;;4905859;29;20775;-61
2024/03/22 13:31:23;;;;;;;4.95;1.75;;;19.70;59.90;;;;;;4921335;29;20758;-61
2024/03/22 13:34:08;;;;;;;5.45;1.67;;;19.80;59.80;;;;;;4916927;29;20379;-61
2024/03/22 13:36:52;;;;;;;4.32;1.95;;;19.90;59.80;;;;;;4920409;29;20081;-61
2024/03/22 13:39:37;;;;;;;5.20;2.20;;;20.00;59.70;;;;;;4910953;29;20074;-61
2024/03/22 13:42:21;;;;;;;4.78;1.50;;;20.10;59.70;;;;;;4903047;29;20438;-61
2024/03/22 13:45:07;;;;;;;4.88;1.77;;;20.20;59.60;;;;;;4902305;29;20050;-61
2024/03/22 13:47:51;;;;;;;3.15;1.33;;;20.30;59.50;;;;;;4915892;29;20528;-61
2024/03/22 13:50:36;;;;;;;6.60;1.73;;;20.40;59.50;;;;;;4911718;29;20490;-61
2024/03/22 13:53:22;;;;;;;5.78;1.60;;;20.40;59.30;;;;;;4917600;29;20165;-60
2024/03/22 13:56:06;;;;;;;4.63;1.85;;;20.50;59.20;;;;;;4914491;29;20071;-61
2024/03/22 13:59:06;;;;;;;3.78;1.30;;;20.60;59.10;;;;;;5131355;27;20129;-59
2024/03/22 14:01:50;;;;;;;5.88;1.50;;;20.70;59.00;;;;;;5102551;27;20058;-62
2024/03/22 14:04:35;;;;;;;6.32;1.77;;;20.80;58.90;;;;;;5117624;27;20042;-61
2024/03/22 14:07:19;;;;;;;3.20;1.35;;;20.80;58.60;;;;;;5090317;27;20616;-60
2024/03/22 14:10:05;;;;;;;4.95;1.55;;;20.80;58.40;;;;;;5077385;28;20112;-61
2024/03/22 14:12:50;;;;;;;3.80;1.38;;;20.80;58.30;;;;;;5077545;28;20038;-61
2024/03/22 14:15:35;;;;;;;6.97;2.35;;;20.80;58.10;;;;;;5071472;27;20057;-59
2024/03/22 14:18:20;;;;;;;4.13;2.03;;;20.80;57.90;;;;;;5069063;28;20493;-60